x

New Dungeness - 17 Nm Ne Of Port Angeles, Wa (46088) Wave Buoy

10:20 - Fri 9th Dec 2016 All times are PST. -8 hours from GMT.

  • Sig Wave height 1.6ft
  • Swell Direction
  • Peak Period 4s
  • Average Period 4s
  • Wind
    16mph, 20mph gusts
  • Sea Temp 49°f
  • Air Temp 39°f
  • Sea Pressure 1013.2mb
  • New Dungeness - 17 Nm Ne Of Port Angeles, Wa
  • New Dungeness - 17 Nm Ne Of Port Angeles, Wa

More Historic Weather Station data

Upgrade to MSW Pro to gain access to the past 30 days of data for over 8000 Wavebouys and Weather Stations around the globe.

Join Pro

Comparision Forecast

View Surf forecast
   
ven. 12/09 10:20 1.6ft 4s 4s 16 20 mph 1013.2mb 49f 39f
9:50 1.6ft 4s 4s 18 22 mph 1013.4mb 49f 39f
9:20 1.6ft 4s 4s 16 18 mph 1013.3mb 49f 38f
8:50 1.6ft 4s 3s 13 18 mph 1013.6mb 49f 38f
8:20 2ft 4s 3s 16 20 mph 1013.7mb 49f 38f
7:50 2.5ft 4s 4s 16 18 mph 1013.2mb 49f 38f
7:20 2.5ft 4s 4s 16 18 mph 1013.4mb 49f 38f
6:20 3ft 4s 4s 20 22 mph 1013.2mb 49f 38f
5:50 3.5ft 4s 4s 20 25 mph 1013.1mb 49f 38f
5:20 3ft 4s 3s 20 25 mph 1013.3mb 49f 38f
4:50 2.5ft 4s 3s 20 25 mph 1013.2mb 49f 38f
4:20 3ft 4s 3s 22 29 mph 1013.3mb 49f 37f
3:50 3ft 4s 3s 25 27 mph 1013.3mb 49f 37f
3:20 3ft 4s 3s 20 25 mph 1013.7mb 49f 36f
2:50 3.5ft 4s 4s 18 22 mph 1014.3mb 49f 36f
2:20 3.5ft 4s 4s 20 27 mph 1013.9mb 49f 36f
1:50 3.5ft 4s 4s 20 25 mph 1014mb 49f 36f
1:20 3.5ft 4s 4s 22 29 mph 1013.6mb 49f 36f
12:50 3.5ft 4s 4s 22 27 mph 1013.6mb 49f 35f
12:20 3.5ft 4s 4s 25 29 mph 1013.5mb 49f 35f
jeu. 12/08 11:50 3.5ft 4s 4s 25 29 mph 1013.7mb 49f 35f
11:20 3ft 4s 4s 25 29 mph 1013.7mb 49f 35f
10:50 2.5ft 4s 3s 22 27 mph 1013.5mb 49f 35f
10:20 2.5ft 4s 4s 25 31 mph 1013.1mb 49f 37f
9:50 2.5ft 4s 4s 20 25 mph 1013mb 49f 39f
9:20 3ft 4s 4s 22 29 mph 1013.1mb 49f 37f
8:50 3ft 4s 3s 22 27 mph 1012.7mb 49f 37f
8:20 3ft 4s 3s 25 29 mph 1012.7mb 49f 37f
7:50 3ft 4s 3s 25 31 mph 1012.9mb 49f 37f
7:20 3ft 4s 3s 25 31 mph 1013.1mb 49f 37f
6:50 3ft 3s 3s 25 31 mph 1013.2mb 49f 37f
6:20 2.5ft 3s 3s 27 31 mph 1013.3mb 49f 37f
5:50 3ft 3s 3s 25 29 mph 1013.4mb 49f 37f
5:20 3ft 3s 3s 25 29 mph 1013.7mb 49f 37f
4:50 2.5ft 3s 3s 25 29 mph 1014mb 49f 37f
4:20 2.5ft 3s 3s 25 29 mph 1014.1mb 49f 37f
3:50 2.5ft 3s 3s 25 29 mph 1014.2mb 49f 37f
3:20 3ft 3s 3s 22 27 mph 1014.9mb 49f 37f
2:50 3ft 3s 3s 27 29 mph 1014.5mb 49f 37f
2:20 3ft 4s 3s 25 29 mph 1015mb 49f 37f
1:50 3.5ft 3s 3s 25 29 mph 1015.3mb 49f 37f
1:20 3ft 4s 3s 25 31 mph 1015.9mb 49f 36f
12:50 3ft 4s 3s 25 29 mph 1016.7mb 49f 36f
12:20 3ft 4s 4s 25 29 mph 1017.1mb 49f 36f
11:50 3ft 4s 4s 25 29 mph 1017.4mb 49f 35f
11:20 3.5ft 4s 4s 22 27 mph 1018.1mb 49f 35f
10:50 2.5ft 4s 4s 22 29 mph 1018.6mb 49f 35f
10:20 2.5ft 4s 4s 22 29 mph 1018.9mb 49f 35f
9:50 2.5ft 4s 4s 22 29 mph 1019.1mb 49f 35f
9:20 3ft 4s 4s 22 27 mph 1019.5mb 49f 35f
8:50 3ft 5s 4s 22 27 mph 1019.8mb 49f 35f
8:20 3ft 4s 4s 22 27 mph 1020mb 49f 35f
7:50 2.5ft 4s 4s 20 25 mph 1020.4mb 49f 34f
7:20 2.5ft 4s 4s 22 27 mph 1020.7mb 49f 34f
6:50 2.5ft 4s 4s 22 27 mph 1020.9mb 49f 35f
6:20 2.5ft 4s 3s 25 29 mph 1021.2mb 49f 34f
5:50 2.5ft 4s 3s 25 29 mph 1021.7mb 49f 35f
5:20 2.5ft 3s 3s 22 27 mph 1021.9mb 49f 35f
4:50 2.5ft 3s 3s 22 27 mph 1022.3mb 49f 35f
4:20 2.5ft 4s 3s 22 27 mph 1022.9mb 49f 35f
3:50 2.5ft 3s 3s 20 25 mph 1023.4mb 49f 35f
3:20 2.5ft 3s 3s 20 25 mph 1023.7mb 49f 35f
2:50 2ft 3s 3s 20 22 mph 1024.1mb 49f 35f
2:20 2.5ft 3s 3s 20 25 mph 1024.4mb 49f 35f
1:50 2.5ft 3s 3s 20 25 mph 1024.7mb 49f 35f
1:20 2ft 3s 3s 20 25 mph 1025.1mb 49f 35f
12:50 2ft 3s 3s 18 22 mph 1025.4mb 49f 35f
12:20 2ft 3s 3s 18 22 mph 1025.7mb 49f 35f
mer. 12/07 11:50 2ft 3s 3s 20 22 mph 1025.8mb 49f 35f
11:20 2ft 3s 3s 20 22 mph 1026.2mb 49f 35f
9:50 2ft 3s 3s 18 22 mph 1027.1mb 49f 35f
8:50 1.6ft 4s 3s 20 25 mph 1027.2mb 49f 36f
8:20 2ft 3s 3s 20 25 mph 1027.4mb 49f 36f
7:50 1.6ft 3s 3s 20 25 mph 1027.5mb 49f 36f
7:20 1.3ft 3s 3s 18 22 mph 1027.9mb 49f 36f
6:50 1.3ft 3s 3s 18 22 mph 1028.1mb 49f 36f
6:20 1.3ft 2s 3s 20 22 mph 1028.3mb 49f 36f
5:50 1.3ft 3s 3s 18 22 mph 1028.4mb 49f 36f
5:20 1.6ft 2s 3s 18 20 mph 1028.8mb 49f 36f
4:50 1.3ft 2s 3s 16 20 mph 1029mb 49f 36f
4:20 1ft 2s 2s 16 20 mph 1029.2mb 49f 36f
3:50 1ft 2s 3s 13 18 mph 1029.6mb 49f 36f
3:20 0.7ft  -  3s 13 18 mph 1029.7mb 49f 36f
2:50 0.7ft  -  3s 13 18 mph 1029.9mb 49f 36f
2:20 1ft 9s 3s 11 16 mph 1030mb 49f 35f
1:50 0.7ft  -  3s 11 16 mph 1030.3mb 49f 35f
1:20 1ft 3s 3s 11 13 mph 1030.5mb 49f 35f
12:50 1ft 3s 3s 11 16 mph 1030.7mb 49f 34f
12:20 1.3ft 3s 3s 11 16 mph 1030.9mb 49f 34f
11:50 1.3ft 3s 3s 11 13 mph 1031mb 49f 34f
11:20 1.3ft 3s 3s 11 16 mph 1031.1mb 49f 33f
10:50 1.3ft 3s 3s 11 13 mph 1031.1mb 49f 33f
10:20 1ft 4s 3s 11 16 mph 1031.2mb 49f 33f
9:20 1ft 3s 3s 11 16 mph 1031.3mb 49f 33f
8:50 1ft 3s 3s 11 16 mph 1031mb 49f 33f
8:20 1ft 3s 3s 9 13 mph 1030.9mb 49f 33f
7:50 1.3ft 4s 3s 11 16 mph 1030.8mb 49f 32f
7:20 1.6ft 4s 4s 11 16 mph 1030.9mb 49f 31f
6:50 2ft 4s 4s 11 16 mph 1031.1mb 49f 31f
6:20 2.5ft 4s 4s 11 16 mph 1031.2mb 49f 31f
5:50 2.5ft 4s 4s 13 18 mph 1031.1mb 49f 31f
5:20 2.5ft 4s 4s 16 20 mph 1030.9mb 49f 32f
4:50 3ft 4s 4s 18 20 mph 1030.8mb 49f 31f
4:20 3ft 4s 4s 20 25 mph 1030.6mb 49f 33f
3:50 3ft 4s 3s 22 27 mph 1030.4mb 49f 33f
3:20 2.5ft 3s  -  22 25 mph 1030.3mb 49f 33f
2:50 2.5ft 3s 3s 20 25 mph 1030.2mb 49f 33f
2:20 2.5ft 3s 3s 18 22 mph 1030.1mb 49f 33f
1:50 2.5ft 3s 3s 20 25 mph 1029.9mb 49f 33f
1:20 2.5ft 3s 3s 22 27 mph 1029.5mb 49f 33f
12:50 2.5ft 3s 3s 22 27 mph 1029.3mb 49f 33f
12:20 2.5ft 3s 3s 25 29 mph 1028.9mb 49f 34f
mar. 12/06 11:50 2.5ft 3s 3s 27 31 mph 1028.6mb 49f 34f
11:20 2.5ft 3s 3s 27 31 mph 1028.4mb 49f 35f
10:50 2.5ft 3s 3s 25 29 mph 1028.1mb 49f 35f
10:20 2ft 3s 3s 20 25 mph 1027.9mb 49f 35f
9:50 1.6ft 3s 3s 20 25 mph 1027.6mb 49f 36f
9:20 2ft 3s 3s 18 20 mph 1027.2mb 49f 36f
8:50 2ft 3s 3s 18 20 mph 1026.9mb 49f 37f
8:20 2ft 3s 3s 18 22 mph 1026.6mb 49f 37f
7:50 1.6ft 3s 3s 18 20 mph 1026.4mb 49f 37f
7:20 1.3ft 3s 3s 16 20 mph 1026.2mb 49f 37f
6:50 1ft 3s 3s 11 16 mph 1026.1mb 49f 37f
5:50 1ft 2s 3s 11 16 mph 1025.8mb 49f 37f
4:50 1ft 2s 3s 11 13 mph 1025.3mb 49f 38f
4:20 1ft 5s 3s 9 13 mph 1025mb 49f 38f
3:50 1ft 10s 3s 11 16 mph 1024.7mb 50f 38f
2:50 1.3ft 3s 3s 11 16 mph 1023.9mb 50f 38f
2:20 1.3ft 3s 3s 9 13 mph 1023.8mb 50f 38f
1:50 1.6ft 3s 3s 11 16 mph 1023.3mb 50f 38f
1:20 1.6ft 3s 3s 9 13 mph 1023.2mb 50f 38f
12:50 2ft 3s 3s 16 20 mph 1022.8mb 50f 38f
12:20 2ft 3s 3s 13 18 mph 1022.7mb 50f 38f
11:50 2.5ft 4s 3s 16 20 mph 1022.4mb 50f 38f
11:20 2ft 4s 3s 13 18 mph 1022.3mb 50f 38f
10:50 2.5ft 4s 4s 13 18 mph 1022.2mb 50f 38f
10:20 2.5ft 4s 4s 18 22 mph 1021.8mb 50f 38f
9:50 2.5ft 4s 4s 16 22 mph 1021.7mb 50f 37f
9:20 2.5ft 4s 4s 20 27 mph 1021.1mb 50f 38f
8:50 2.5ft 4s 4s 22 29 mph 1020.6mb 50f 38f
8:20 2.5ft 4s 4s 18 25 mph 1020.4mb 50f 38f
7:50 2.5ft 4s 4s 20 25 mph 1020.1mb 50f 38f
7:20 2.5ft 4s 4s 22 29 mph 1019.6mb 49f 38f
6:50 2.5ft 4s 4s 22 27 mph 1019.4mb 49f 39f
6:20 2.5ft 4s 4s 25 29 mph 1019.1mb 49f 39f
5:50 2.5ft 4s 4s 22 29 mph 1018.8mb 50f 39f
5:20 2.5ft 4s 4s 25 29 mph 1018.4mb 49f 39f
4:50 2.5ft 4s 4s 25 29 mph 1018.1mb 49f 39f
4:20 2.5ft 4s 4s 22 27 mph 1018mb 50f 39f
3:50 2.5ft 3s 3s 20 25 mph 1017.8mb 50f 39f
3:20 2ft 3s 3s 20 25 mph 1017.6mb 50f 39f
2:50 2ft 3s 3s 22 27 mph 1017.3mb 50f 40f
2:20 2ft 3s 3s 20 25 mph 1016.9mb 50f 40f
1:50 2ft 3s 3s 22 27 mph 1016.5mb 50f 40f
1:20 1.6ft 3s 3s 22 27 mph 1016.4mb 50f 40f
12:50 1.6ft 3s 3s 20 22 mph 1016.5mb 50f 40f
12:20 1.3ft 3s 3s 18 22 mph 1016.4mb 50f 40f
lun. 12/05 11:50 1.3ft 3s 3s 18 22 mph 1016.5mb 50f 40f
11:20 1ft 2s 3s 7 11 mph 1016.7mb 49f 37f
10:50 1ft 3s 3s 9 16 mph 1016.5mb 49f 38f
10:20 1ft 3s 3s 2 4 mph 1016.5mb 50f 37f
9:50 1.3ft 3s 3s 7 9 mph 1016.2mb 50f 39f
9:20 1.3ft 3s 3s 13 16 mph 1016.1mb 50f 39f
8:50 1.3ft 3s 3s 13 16 mph 1015.9mb 50f 39f
8:20 1.3ft 2s 3s 18 20 mph 1015.3mb 50f 41f
7:50 1ft 3s 3s 16 18 mph 1015.4mb 50f 41f